createdAt,value
2018-03-17T00:01:38.859Z,1.87
2018-03-17T00:04:06.617Z,3.10
2018-03-17T00:06:34.110Z,1.93
2018-03-17T00:09:01.674Z,1.40
2018-03-17T00:11:29.211Z,3.20
2018-03-17T00:13:57.228Z,2.30
2018-03-17T00:16:24.757Z,1.33
2018-03-17T00:18:52.644Z,1.13
2018-03-17T00:21:20.311Z,1.67
2018-03-17T00:23:47.831Z,1.67
2018-03-17T00:26:15.784Z,0.93
2018-03-17T00:28:43.296Z,0.97
2018-03-17T00:31:10.870Z,2.50
2018-03-17T00:33:38.413Z,1.43
2018-03-17T00:36:05.939Z,1.20
2018-03-17T00:38:33.472Z,0.77
2018-03-17T00:41:01.015Z,1.67
2018-03-17T00:43:28.519Z,0.83
2018-03-17T00:45:56.460Z,1.37
2018-03-17T00:48:23.978Z,0.80
2018-03-17T00:50:51.496Z,1.63
2018-03-17T00:53:19.440Z,2.10
2018-03-17T00:55:46.937Z,1.33
2018-03-17T00:58:14.588Z,1.37
2018-03-17T01:00:42.494Z,0.60
2018-03-17T01:03:10.040Z,0.80
2018-03-17T01:05:37.557Z,0.67
2018-03-17T01:08:05.476Z,1.70
2018-03-17T01:10:32.980Z,0.80
2018-03-17T01:13:00.908Z,2.33
2018-03-17T01:15:28.434Z,0.70
2018-03-17T01:17:55.976Z,0.70
2018-03-17T01:20:23.890Z,1.20
2018-03-17T01:22:51.427Z,1.00
2018-03-17T01:25:18.935Z,1.03
2018-03-17T01:27:46.872Z,0.90
2018-03-17T01:30:14.416Z,0.80
2018-03-17T01:32:41.930Z,0.70
2018-03-17T01:35:09.865Z,0.80
2018-03-17T01:37:37.372Z,1.00
2018-03-17T01:40:05.292Z,1.40
2018-03-17T01:42:32.799Z,0.70
2018-03-17T01:45:00.323Z,3.93
2018-03-17T01:47:27.914Z,1.13
2018-03-17T01:49:55.438Z,1.00
2018-03-17T01:52:22.936Z,1.13
2018-03-17T01:54:50.524Z,1.57
2018-03-17T01:57:18.012Z,1.27
2018-03-17T01:59:51.560Z,1.20
2018-03-17T02:02:19.184Z,1.03
2018-03-17T02:04:47.194Z,0.83
2018-03-17T02:07:14.758Z,0.70
2018-03-17T02:09:42.282Z,0.70
2018-03-17T02:12:10.205Z,0.83
2018-03-17T02:14:37.724Z,0.87
2018-03-17T02:17:05.250Z,0.90
2018-03-17T02:19:32.773Z,2.00
2018-03-17T02:22:00.300Z,0.87
2018-03-17T02:24:27.998Z,0.93
2018-03-17T02:26:55.525Z,1.90
2018-03-17T02:29:23.045Z,0.80
2018-03-17T02:31:50.992Z,0.90
2018-03-17T02:34:18.501Z,1.10
2018-03-17T02:36:46.046Z,1.33
2018-03-17T02:39:13.950Z,0.80
2018-03-17T02:41:41.566Z,1.40
2018-03-17T02:44:09.486Z,1.10
2018-03-17T02:46:37.029Z,0.90
2018-03-17T02:49:04.587Z,1.37
2018-03-17T02:51:32.114Z,0.80
2018-03-17T02:54:00.044Z,0.50
2018-03-17T02:56:27.770Z,1.03
2018-03-17T02:58:55.300Z,1.00
2018-03-17T03:01:23.203Z,1.90
2018-03-17T03:03:50.727Z,1.40
2018-03-17T03:06:18.630Z,0.80
2018-03-17T03:08:46.158Z,2.10
2018-03-17T03:11:14.196Z,2.27
2018-03-17T03:13:41.732Z,0.80
2018-03-17T03:16:09.346Z,1.30
2018-03-17T03:18:36.856Z,1.43
2018-03-17T03:21:04.487Z,1.20
2018-03-17T03:23:32.001Z,2.50
2018-03-17T03:29:21.243Z,1.00
2018-03-17T03:31:48.748Z,4.03
2018-03-17T03:34:16.689Z,1.43
2018-03-17T03:36:44.201Z,1.10
2018-03-17T03:39:11.708Z,1.10
2018-03-17T03:41:39.246Z,1.10
2018-03-17T03:44:06.766Z,1.50
2018-03-17T03:46:34.296Z,0.97
2018-03-17T03:49:02.210Z,1.13
2018-03-17T03:51:29.739Z,1.20
2018-03-17T03:53:57.657Z,1.63
2018-03-17T03:56:25.197Z,1.13
2018-03-17T03:58:52.715Z,1.43
2018-03-17T04:01:20.639Z,1.10
2018-03-17T04:03:48.155Z,1.23
2018-03-17T04:06:15.691Z,1.80
2018-03-17T04:08:43.614Z,2.77
2018-03-17T04:11:11.139Z,2.17
2018-03-17T04:13:38.899Z,1.20
2018-03-17T04:16:06.842Z,1.37
2018-03-17T04:18:34.358Z,1.20
2018-03-17T04:21:01.884Z,0.90
2018-03-17T04:23:29.816Z,1.60
2018-03-17T04:25:57.331Z,1.00
2018-03-17T04:28:24.867Z,1.23
2018-03-17T04:30:52.386Z,1.47
2018-03-17T04:33:20.316Z,1.13
2018-03-17T04:35:48.076Z,1.73
2018-03-17T04:38:15.600Z,1.67
2018-03-17T04:40:43.512Z,0.70
2018-03-17T04:43:11.063Z,2.30
2018-03-17T04:45:38.575Z,1.00
2018-03-17T04:48:06.513Z,1.80
2018-03-17T04:50:34.024Z,0.90
2018-03-17T04:53:01.574Z,1.10
2018-03-17T04:55:35.180Z,1.23
2018-03-17T04:58:02.707Z,1.70
2018-03-17T05:00:30.225Z,1.27
2018-03-17T05:02:57.981Z,2.93
2018-03-17T05:05:25.495Z,1.27
2018-03-17T05:07:53.423Z,1.83
2018-03-17T05:10:20.957Z,1.33
2018-03-17T05:12:48.801Z,1.17
2018-03-17T05:15:16.738Z,4.07
2018-03-17T05:17:44.248Z,1.47
2018-03-17T05:20:11.819Z,1.40
2018-03-17T05:22:39.336Z,0.77
2018-03-17T05:25:07.349Z,1.10
2018-03-17T05:27:34.859Z,0.93
2018-03-17T05:30:02.784Z,0.80
2018-03-17T05:32:30.289Z,0.70
2018-03-17T05:34:58.291Z,4.00
2018-03-17T05:37:25.806Z,0.93
2018-03-17T05:39:53.736Z,0.90
2018-03-17T05:42:21.248Z,0.77
2018-03-17T05:44:48.790Z,1.23
2018-03-17T05:47:16.710Z,1.17
2018-03-17T05:49:44.443Z,1.10
2018-03-17T05:52:12.033Z,1.33
2018-03-17T05:54:39.602Z,1.30
2018-03-17T05:57:07.118Z,1.27
2018-03-17T05:59:34.703Z,2.20
2018-03-17T06:02:02.208Z,1.00
2018-03-17T06:04:29.820Z,1.67
2018-03-17T06:06:57.356Z,3.13
2018-03-17T06:09:24.877Z,1.10
2018-03-17T06:11:52.420Z,3.67
2018-03-17T06:14:19.939Z,2.40
2018-03-17T06:16:47.463Z,0.90
2018-03-17T06:19:15.473Z,1.20
2018-03-17T06:21:43.032Z,1.30
2018-03-17T06:24:10.544Z,2.00
2018-03-17T06:26:38.072Z,1.00
2018-03-17T06:29:05.585Z,1.23
2018-03-17T06:31:33.120Z,1.43
2018-03-17T06:34:01.040Z,1.07
2018-03-17T06:36:28.563Z,1.10
2018-03-17T06:38:56.257Z,1.90
2018-03-17T06:41:23.792Z,1.30
2018-03-17T06:43:51.304Z,1.43
2018-03-17T06:46:18.915Z,1.20
2018-03-17T06:48:46.419Z,2.17
2018-03-17T06:51:13.955Z,1.13
2018-03-17T06:53:41.487Z,1.30
2018-03-17T06:56:08.995Z,2.43
2018-03-17T06:58:36.560Z,1.07
2018-03-17T07:01:04.090Z,1.67
2018-03-17T07:03:31.608Z,1.10
2018-03-17T07:05:59.650Z,2.23
2018-03-17T07:08:27.201Z,1.33
2018-03-17T07:10:54.731Z,2.40
2018-03-17T07:13:22.262Z,2.23
2018-03-17T07:15:49.839Z,5.20
2018-03-17T07:18:17.371Z,2.47
2018-03-17T07:20:44.888Z,2.10
2018-03-17T07:23:12.426Z,1.67
2018-03-17T07:25:39.939Z,2.47
2018-03-17T07:28:07.867Z,3.50
2018-03-17T07:30:35.398Z,2.50
2018-03-17T07:33:02.927Z,2.43
2018-03-17T07:35:30.473Z,4.23
2018-03-17T07:37:58.369Z,3.03
2018-03-17T07:40:25.900Z,3.00
2018-03-17T07:42:53.813Z,3.37
2018-03-17T07:45:21.351Z,4.50
2018-03-17T07:47:48.882Z,4.43
2018-03-17T07:50:16.816Z,2.90
2018-03-17T07:52:44.443Z,4.23
2018-03-17T07:55:11.987Z,3.33
2018-03-17T07:57:39.506Z,4.77
2018-03-17T08:00:07.055Z,6.43
2018-03-17T08:02:34.564Z,6.13
2018-03-17T08:05:02.082Z,6.93
2018-03-17T08:07:29.634Z,5.60
2018-03-17T08:09:57.187Z,6.00
2018-03-17T08:12:24.721Z,9.10
2018-03-17T08:14:52.287Z,6.23
2018-03-17T08:17:19.845Z,9.93
2018-03-17T08:19:47.368Z,7.57
2018-03-17T08:22:14.956Z,6.60
2018-03-17T08:24:42.456Z,7.93
2018-03-17T08:27:09.995Z,8.40
2018-03-17T08:29:37.501Z,8.50
2018-03-17T08:32:05.037Z,11.73
2018-03-17T08:34:32.998Z,10.67
2018-03-17T08:37:01.331Z,13.97
2018-03-17T08:39:28.883Z,15.13
2018-03-17T08:41:56.433Z,14.50
2018-03-17T08:44:23.969Z,12.77
2018-03-17T08:46:51.919Z,15.77
2018-03-17T08:49:19.448Z,15.30
2018-03-17T08:51:46.976Z,15.57
2018-03-17T08:54:14.521Z,16.50
2018-03-17T08:56:42.058Z,19.30
2018-03-17T08:59:10.024Z,19.50
2018-03-17T09:01:37.949Z,19.83
2018-03-17T09:04:05.518Z,20.83
2018-03-17T09:06:33.033Z,21.47
2018-03-17T09:09:00.576Z,20.93
2018-03-17T09:11:28.577Z,22.80
2018-03-17T09:13:56.118Z,26.10
2018-03-17T09:16:23.638Z,26.83
2018-03-17T09:18:51.168Z,27.40
2018-03-17T09:21:18.691Z,23.20
2018-03-17T09:23:46.240Z,24.10
2018-03-17T09:26:14.167Z,24.20
2018-03-17T09:28:41.711Z,25.23
2018-03-17T09:31:09.235Z,26.30
2018-03-17T09:33:37.173Z,26.00
2018-03-17T09:36:05.086Z,24.10
2018-03-17T09:38:32.591Z,25.87
2018-03-17T09:41:00.137Z,23.60
2018-03-17T09:43:27.855Z,26.60
2018-03-17T09:45:55.572Z,23.60
2018-03-17T09:48:23.084Z,24.03
2018-03-17T09:50:50.627Z,23.17
2018-03-17T09:53:18.214Z,22.87
2018-03-17T09:55:45.724Z,20.60
2018-03-17T09:58:13.676Z,22.30
2018-03-17T10:00:41.235Z,22.10
2018-03-17T10:03:08.748Z,22.13
2018-03-17T10:05:36.273Z,24.00
2018-03-17T10:08:03.797Z,24.33
2018-03-17T10:10:31.430Z,23.73
2018-03-17T10:12:58.952Z,18.60
2018-03-17T10:15:26.901Z,21.10
2018-03-17T10:17:54.824Z,22.53
2018-03-17T10:20:22.383Z,20.50
2018-03-17T10:22:50.047Z,20.63
2018-03-17T10:25:17.607Z,20.23
2018-03-17T10:27:45.119Z,20.90
2018-03-17T10:30:13.064Z,22.43
2018-03-17T10:32:40.687Z,22.03
2018-03-17T10:35:08.270Z,24.17
2018-03-17T10:37:35.812Z,22.70
2018-03-17T10:40:03.367Z,21.10
2018-03-17T10:42:30.897Z,25.93
2018-03-17T10:44:58.441Z,22.13
2018-03-17T10:47:26.355Z,21.07
2018-03-17T10:49:53.876Z,21.60
2018-03-17T10:52:21.399Z,22.27
2018-03-17T10:54:48.923Z,22.77
2018-03-17T10:57:16.443Z,21.20
2018-03-17T10:59:43.971Z,21.13
2018-03-17T11:02:11.515Z,27.30
2018-03-17T11:04:39.055Z,25.90
2018-03-17T11:07:06.584Z,27.03
2018-03-17T11:09:34.511Z,24.43
2018-03-17T11:12:02.031Z,27.13
2018-03-17T11:14:29.570Z,31.47
2018-03-17T11:16:57.111Z,33.17
2018-03-17T11:19:24.640Z,32.40
2018-03-17T11:21:52.188Z,32.23
2018-03-17T11:24:19.719Z,32.43
2018-03-17T11:26:47.247Z,38.83
2018-03-17T11:29:15.170Z,31.60
2018-03-17T11:31:43.153Z,37.93
2018-03-17T11:34:10.696Z,32.43
2018-03-17T11:36:38.200Z,32.13
2018-03-17T11:39:06.121Z,34.93
2018-03-17T11:41:33.630Z,33.50
2018-03-17T11:44:01.549Z,31.97
2018-03-17T11:46:29.089Z,26.30
2018-03-17T11:48:56.669Z,28.40
2018-03-17T11:51:24.192Z,22.63
2018-03-17T11:53:51.699Z,21.07
2018-03-17T11:56:19.211Z,21.50
2018-03-17T11:58:46.723Z,23.20
2018-03-17T12:01:14.236Z,22.10
2018-03-17T12:03:41.743Z,22.67
2018-03-17T12:06:09.664Z,19.90
2018-03-17T12:08:37.221Z,20.97
2018-03-17T12:11:05.807Z,21.43
2018-03-17T12:13:33.555Z,22.20
2018-03-17T12:16:01.127Z,21.20
2018-03-17T12:18:28.685Z,19.30
2018-03-17T12:20:56.247Z,20.50
2018-03-17T12:23:23.782Z,23.53
2018-03-17T12:25:51.295Z,21.77
2018-03-17T12:28:19.248Z,23.40
2018-03-17T12:30:46.803Z,18.73
2018-03-17T12:33:14.325Z,20.27
2018-03-17T12:35:41.833Z,21.77
2018-03-17T12:38:09.351Z,19.33
2018-03-17T12:40:36.879Z,21.97
2018-03-17T12:43:04.780Z,21.77
2018-03-17T12:45:32.342Z,22.57
2018-03-17T12:48:00.223Z,22.00
2018-03-17T12:50:27.733Z,20.87
2018-03-17T12:52:55.316Z,20.00
2018-03-17T12:55:22.849Z,17.30
2018-03-17T12:57:50.371Z,21.37
2018-03-17T13:00:17.902Z,16.30
2018-03-17T13:02:45.430Z,17.50
2018-03-17T13:05:13.012Z,21.70
2018-03-17T13:07:40.569Z,18.63
2018-03-17T13:10:08.120Z,20.73
2018-03-17T13:12:35.636Z,18.90
2018-03-17T13:15:03.535Z,15.60
2018-03-17T13:17:31.056Z,15.77
2018-03-17T13:19:58.564Z,11.63
2018-03-17T13:22:26.076Z,17.87
2018-03-17T13:24:54.348Z,13.47
2018-03-17T13:27:34.134Z,16.07
2018-03-17T13:30:01.652Z,13.00
2018-03-17T13:35:45.096Z,13.57
2018-03-17T13:38:12.707Z,14.43
2018-03-17T13:40:43.024Z,16.90
2018-03-17T13:43:10.581Z,11.93
2018-03-17T13:45:38.103Z,13.17
2018-03-17T13:48:06.022Z,13.70
2018-03-17T13:50:33.551Z,13.37
2018-03-17T13:53:01.126Z,14.87
2018-03-17T13:55:28.668Z,14.50
2018-03-17T13:57:56.352Z,16.57
2018-03-17T14:00:23.873Z,15.40
2018-03-17T14:02:51.823Z,12.60
2018-03-17T14:05:19.388Z,15.50
2018-03-17T14:07:46.942Z,12.17
2018-03-17T14:10:14.882Z,11.83
2018-03-17T14:12:42.396Z,15.40
2018-03-17T14:15:10.014Z,16.83
2018-03-17T14:17:37.559Z,14.13
2018-03-17T14:20:05.077Z,15.37
2018-03-17T14:22:32.625Z,12.93
2018-03-17T14:25:00.597Z,16.30
2018-03-17T14:27:28.128Z,19.17
2018-03-17T14:29:55.669Z,16.87
2018-03-17T14:32:23.180Z,16.50
2018-03-17T14:34:50.860Z,15.90
2018-03-17T14:37:18.404Z,15.70
2018-03-17T14:39:45.952Z,18.67
2018-03-17T14:42:13.526Z,20.50
2018-03-17T14:44:41.071Z,19.90
2018-03-17T14:47:09.266Z,19.43
2018-03-17T14:49:36.889Z,17.80
2018-03-17T14:52:04.456Z,20.40
2018-03-17T14:54:32.041Z,18.67
2018-03-17T14:56:59.580Z,18.10
2018-03-17T14:59:27.105Z,17.50
2018-03-17T15:01:55.070Z,16.10
2018-03-17T15:04:22.584Z,15.53
2018-03-17T15:06:50.111Z,21.60
2018-03-17T15:09:18.019Z,18.57
2018-03-17T15:11:45.571Z,20.93
2018-03-17T15:14:13.087Z,21.30
2018-03-17T15:16:41.040Z,22.67
2018-03-17T15:19:08.659Z,26.33
2018-03-17T15:21:36.220Z,20.67
2018-03-17T15:24:03.783Z,23.87
2018-03-17T15:26:31.336Z,22.30
2018-03-17T15:28:58.848Z,26.23
2018-03-17T15:31:26.795Z,28.13
2018-03-17T15:33:54.344Z,23.97
2018-03-17T15:36:21.900Z,22.73
2018-03-17T15:38:49.448Z,25.10
2018-03-17T15:41:17.103Z,23.97
2018-03-17T15:43:44.775Z,25.63
2018-03-17T15:46:12.371Z,29.10
2018-03-17T15:48:39.893Z,26.07
2018-03-17T15:51:07.411Z,26.70
2018-03-17T15:53:34.952Z,26.97
2018-03-17T15:56:02.865Z,27.73
2018-03-17T15:58:30.409Z,26.13
2018-03-17T16:00:57.973Z,24.17
2018-03-17T16:03:25.503Z,21.63
2018-03-17T16:05:53.499Z,26.00
2018-03-17T16:08:21.079Z,24.83
2018-03-17T16:10:48.594Z,28.17
2018-03-17T16:13:16.140Z,26.87
2018-03-17T16:15:44.059Z,26.93
2018-03-17T16:18:11.595Z,25.50
2018-03-17T16:20:39.128Z,30.90
2018-03-17T16:23:07.061Z,27.93
2018-03-17T16:25:34.800Z,31.50
2018-03-17T16:28:02.370Z,27.07
2018-03-17T16:30:29.892Z,25.57
2018-03-17T16:32:57.407Z,31.63
2018-03-17T16:35:25.537Z,27.73
2018-03-17T16:37:53.043Z,29.70
2018-03-17T16:40:21.005Z,29.70
2018-03-17T16:42:48.524Z,30.10
2018-03-17T16:45:16.079Z,28.30
2018-03-17T16:47:43.621Z,28.03
2018-03-17T16:50:11.272Z,25.83
2018-03-17T16:52:39.180Z,31.03
2018-03-17T16:55:06.767Z,29.10
2018-03-17T16:57:34.281Z,30.20
2018-03-17T17:00:01.836Z,33.37
2018-03-17T17:02:29.388Z,31.40
2018-03-17T17:04:56.937Z,31.67
2018-03-17T17:07:24.452Z,29.53
2018-03-17T17:09:51.996Z,32.03
2018-03-17T17:12:19.527Z,33.03
2018-03-17T17:14:47.084Z,32.33
2018-03-17T17:17:14.666Z,31.13
2018-03-17T17:19:42.201Z,33.70
2018-03-17T17:22:09.731Z,35.77
2018-03-17T17:24:37.629Z,39.20
2018-03-17T17:27:05.157Z,30.97
2018-03-17T17:29:33.070Z,32.77
2018-03-17T17:32:00.620Z,34.60
2018-03-17T17:34:28.141Z,38.27
2018-03-17T17:36:56.343Z,34.60
2018-03-17T17:39:24.062Z,31.57
2018-03-17T17:41:51.558Z,38.47
2018-03-17T17:44:19.222Z,35.07
2018-03-17T17:46:46.871Z,36.07
2018-03-17T17:49:14.631Z,32.57
2018-03-17T17:51:43.195Z,30.40
2018-03-17T17:54:11.098Z,24.97
2018-03-17T17:56:38.669Z,31.37
2018-03-17T17:59:06.217Z,28.83
2018-03-17T18:01:33.740Z,29.80
2018-03-17T18:04:01.311Z,28.83
2018-03-17T18:06:28.821Z,29.50
2018-03-17T18:08:56.380Z,34.37
2018-03-17T18:11:23.893Z,35.60
2018-03-17T18:13:51.423Z,31.30
2018-03-17T18:16:18.933Z,28.73
2018-03-17T18:18:46.479Z,22.93
2018-03-17T18:21:14.013Z,27.23
2018-03-17T18:23:41.559Z,26.70
2018-03-17T18:26:09.475Z,29.20
2018-03-17T18:28:37.015Z,24.77
2018-03-17T18:31:04.532Z,24.73
2018-03-17T18:33:32.462Z,26.40
2018-03-17T18:35:59.976Z,29.50
2018-03-17T18:38:27.542Z,27.27
2018-03-17T18:40:55.062Z,28.70
2018-03-17T18:43:22.998Z,27.47
2018-03-17T18:45:50.540Z,28.53
2018-03-17T18:48:18.047Z,40.40
2018-03-17T18:50:45.629Z,27.77
2018-03-17T18:53:13.558Z,30.70
2018-03-17T18:55:41.105Z,30.67
2018-03-17T18:58:08.628Z,47.60
2018-03-17T19:00:36.222Z,29.70
2018-03-17T19:03:03.766Z,32.27
2018-03-17T19:05:31.307Z,45.90
2018-03-17T19:07:58.835Z,33.10
2018-03-17T19:10:26.394Z,29.13
2018-03-17T19:12:54.367Z,28.83
2018-03-17T19:15:22.398Z,40.50
2018-03-17T19:17:49.980Z,27.03
2018-03-17T19:20:17.515Z,31.47
2018-03-17T19:22:45.032Z,29.53
2018-03-17T19:25:12.576Z,31.63
2018-03-17T19:27:40.852Z,30.90
2018-03-17T19:30:08.449Z,38.73
2018-03-17T19:32:35.994Z,27.67
2018-03-17T19:35:03.551Z,30.50
2018-03-17T19:37:31.088Z,34.30
2018-03-17T19:39:58.991Z,29.20
2018-03-17T19:42:26.531Z,25.20
2018-03-17T19:44:54.043Z,24.30
2018-03-17T19:47:21.597Z,26.40
2018-03-17T19:49:49.224Z,29.93
2018-03-17T19:52:16.781Z,30.47
2018-03-17T19:54:44.323Z,26.47
2018-03-17T19:57:11.860Z,27.80
2018-03-17T19:59:39.777Z,26.63
2018-03-17T20:02:07.336Z,25.90
2018-03-17T20:04:34.867Z,27.67
2018-03-17T20:07:02.402Z,23.10
2018-03-17T20:09:30.330Z,26.90
2018-03-17T20:11:57.892Z,29.60
2018-03-17T20:14:25.455Z,33.80
2018-03-17T20:16:53.083Z,33.23
2018-03-17T20:19:20.613Z,28.13
2018-03-17T20:21:48.168Z,31.50
2018-03-17T20:24:16.103Z,30.93
2018-03-17T20:26:43.683Z,26.60
2018-03-17T20:29:11.604Z,26.80
2018-03-17T20:31:39.142Z,27.67
2018-03-17T20:34:06.748Z,27.80
2018-03-17T20:36:34.373Z,28.60
2018-03-17T20:39:01.928Z,27.07
2018-03-17T20:41:29.435Z,30.07
2018-03-17T20:43:56.988Z,29.63
2018-03-17T20:46:24.511Z,28.87
2018-03-17T20:48:52.064Z,39.13
2018-03-17T20:51:19.996Z,27.17
2018-03-17T20:53:47.937Z,29.73
2018-03-17T20:56:15.463Z,26.60
2018-03-17T20:58:43.019Z,28.93
2018-03-17T21:01:10.643Z,27.23
2018-03-17T21:03:38.221Z,25.10
2018-03-17T21:06:05.748Z,26.73
2018-03-17T21:08:33.686Z,27.67
2018-03-17T21:11:01.236Z,29.97
2018-03-17T21:13:28.756Z,26.73
2018-03-17T21:15:56.314Z,27.40
2018-03-17T21:18:23.837Z,25.43
2018-03-17T21:20:51.384Z,27.63
2018-03-17T21:23:18.908Z,29.20
2018-03-17T21:25:46.462Z,25.33
2018-03-17T21:28:13.972Z,26.53
2018-03-17T21:30:41.531Z,29.20
2018-03-17T21:33:09.380Z,23.43
2018-03-17T21:35:36.999Z,29.00
2018-03-17T21:38:04.518Z,30.57
2018-03-17T21:40:32.084Z,27.20
2018-03-17T21:43:00.023Z,30.77
2018-03-17T21:45:27.548Z,27.27
2018-03-17T21:47:55.097Z,28.70
2018-03-17T21:50:22.631Z,31.77
2018-03-17T21:52:50.599Z,28.17
2018-03-17T21:55:18.517Z,29.73
2018-03-17T21:57:46.077Z,32.87
2018-03-17T22:00:14.114Z,31.10
2018-03-17T22:02:41.688Z,28.17
2018-03-17T22:05:09.210Z,34.37
2018-03-17T22:07:37.139Z,34.60
2018-03-17T22:10:04.694Z,34.47
2018-03-17T22:12:32.346Z,33.30
2018-03-17T22:14:59.920Z,30.67
2018-03-17T22:17:27.481Z,32.27
2018-03-17T22:19:55.046Z,32.77
2018-03-17T22:22:22.595Z,35.43
2018-03-17T22:24:50.128Z,32.13
2018-03-17T22:27:17.671Z,33.80
2018-03-17T22:29:45.225Z,31.47
2018-03-17T22:32:12.754Z,28.67
2018-03-17T22:34:40.304Z,29.40
2018-03-17T22:37:07.852Z,35.07
2018-03-17T22:39:35.395Z,37.07
2018-03-17T22:42:02.916Z,31.97
2018-03-17T22:44:30.457Z,34.20
2018-03-17T22:46:58.376Z,28.30
2018-03-17T22:49:25.945Z,26.40
2018-03-17T22:51:53.484Z,30.50
2018-03-17T22:54:21.041Z,30.53
2018-03-17T22:56:48.589Z,32.83
2018-03-17T22:59:16.225Z,31.43
2018-03-17T23:01:44.140Z,30.43
2018-03-17T23:04:11.689Z,35.67
2018-03-17T23:06:39.226Z,30.27
2018-03-17T23:09:06.767Z,32.30
2018-03-17T23:11:34.755Z,32.20
2018-03-17T23:14:02.276Z,26.60
2018-03-17T23:16:29.807Z,30.80
2018-03-17T23:18:57.334Z,30.27
2018-03-17T23:21:24.878Z,33.50
2018-03-17T23:23:52.385Z,27.47
2018-03-17T23:26:19.931Z,33.07
2018-03-17T23:28:47.470Z,30.70
2018-03-17T23:31:15.034Z,30.93
2018-03-17T23:33:42.551Z,31.23
2018-03-17T23:36:10.496Z,37.00
2018-03-17T23:38:38.041Z,33.90
2018-03-17T23:41:05.589Z,28.83
2018-03-17T23:43:33.107Z,27.73
2018-03-17T23:46:01.059Z,31.47
2018-03-17T23:48:28.982Z,30.03
2018-03-17T23:50:56.574Z,30.27
2018-03-17T23:53:24.515Z,28.03
2018-03-17T23:55:52.066Z,27.93
2018-03-17T23:58:19.579Z,30.20
